createdAt,value
2018-07-23T00:01:17.207Z,5.20
2018-07-23T00:03:46.008Z,6.87
2018-07-23T00:06:14.563Z,6.80
2018-07-23T00:08:43.018Z,7.33
2018-07-23T00:11:11.812Z,6.70
2018-07-23T00:13:40.245Z,7.13
2018-07-23T00:16:08.698Z,7.43
2018-07-23T00:18:37.146Z,6.83
2018-07-23T00:21:05.597Z,7.00
2018-07-23T00:23:34.012Z,6.43
2018-07-23T00:26:02.452Z,6.67
2018-07-23T00:28:30.897Z,6.67
2018-07-23T00:30:59.340Z,6.70
2018-07-23T00:33:27.800Z,7.63
2018-07-23T00:35:56.230Z,6.20
2018-07-23T00:38:24.656Z,7.17
2018-07-23T00:40:53.070Z,6.03
2018-07-23T00:43:21.519Z,5.73
2018-07-23T00:45:49.957Z,7.00
2018-07-23T00:48:18.410Z,6.20
2018-07-23T00:50:46.840Z,6.10
2018-07-23T00:53:15.258Z,6.43
2018-07-23T00:55:43.714Z,6.17
2018-07-23T00:58:12.138Z,6.37
2018-07-23T01:00:40.638Z,7.40
2018-07-23T01:03:09.127Z,6.20
2018-07-23T01:05:38.783Z,7.30
2018-07-23T01:08:08.186Z,7.30
2018-07-23T01:10:37.006Z,6.60
2018-07-23T01:13:05.798Z,6.17
2018-07-23T01:15:34.428Z,7.07
2018-07-23T01:18:02.863Z,6.77
2018-07-23T01:20:31.439Z,6.50
2018-07-23T01:23:00.227Z,7.07
2018-07-23T01:25:28.652Z,8.17
2018-07-23T01:27:57.082Z,6.30
2018-07-23T01:30:25.546Z,6.57
2018-07-23T01:32:53.986Z,6.87
2018-07-23T01:35:22.431Z,7.27
2018-07-23T01:37:50.842Z,7.17
2018-07-23T01:40:19.951Z,7.20
2018-07-23T01:42:48.432Z,7.00
2018-07-23T01:45:16.866Z,6.87
2018-07-23T01:47:45.331Z,7.03
2018-07-23T01:50:13.820Z,7.47
2018-07-23T01:52:42.245Z,7.33
2018-07-23T01:55:10.676Z,6.90
2018-07-23T01:57:39.200Z,6.53
2018-07-23T02:00:08.046Z,6.63
2018-07-23T02:02:36.490Z,7.50
2018-07-23T02:05:04.955Z,8.97
2018-07-23T02:07:33.389Z,6.50
2018-07-23T02:10:01.795Z,7.17
2018-07-23T02:12:30.237Z,7.60
2018-07-23T02:14:58.698Z,7.50
2018-07-23T02:17:27.114Z,7.73
2018-07-23T02:19:55.641Z,7.40
2018-07-23T02:22:24.066Z,7.37
2018-07-23T02:24:52.883Z,7.17
2018-07-23T02:27:21.459Z,8.17
2018-07-23T02:29:49.887Z,6.53
2018-07-23T02:32:18.328Z,7.40
2018-07-23T02:34:46.809Z,7.50
2018-07-23T02:37:15.282Z,6.90
2018-07-23T02:39:43.726Z,7.67
2018-07-23T02:42:12.377Z,7.70
2018-07-23T02:44:40.788Z,6.87
2018-07-23T02:47:09.896Z,6.57
2018-07-23T02:49:39.046Z,7.93
2018-07-23T02:52:08.382Z,7.10
2018-07-23T02:54:36.897Z,8.27
2018-07-23T02:57:05.332Z,8.73
2018-07-23T02:59:33.802Z,7.70
2018-07-23T03:02:02.233Z,6.43
2018-07-23T03:04:30.681Z,7.73
2018-07-23T03:06:59.114Z,6.57
2018-07-23T03:09:27.545Z,7.57
2018-07-23T03:11:55.995Z,8.97
2018-07-23T03:14:24.405Z,7.63
2018-07-23T03:16:52.880Z,7.00
2018-07-23T03:19:21.350Z,6.43
2018-07-23T03:21:49.878Z,6.90
2018-07-23T03:24:18.499Z,6.97
2018-07-23T03:26:53.160Z,7.23
2018-07-23T03:29:21.609Z,7.57
2018-07-23T03:31:50.119Z,8.13
2018-07-23T03:34:18.598Z,6.20
2018-07-23T03:36:47.048Z,7.13
2018-07-23T03:39:15.490Z,6.47
2018-07-23T03:41:43.918Z,6.40
2018-07-23T03:44:12.404Z,7.53
2018-07-23T03:46:40.855Z,8.40
2018-07-23T03:49:09.283Z,6.97
2018-07-23T03:51:37.763Z,6.87
2018-07-23T03:54:06.406Z,6.50
2018-07-23T03:56:34.865Z,7.10
2018-07-23T03:59:03.341Z,7.30
2018-07-23T04:01:32.134Z,6.30
2018-07-23T04:04:00.581Z,7.13
2018-07-23T04:06:29.392Z,6.97
2018-07-23T04:08:57.870Z,6.57
2018-07-23T04:11:26.321Z,7.17
2018-07-23T04:13:54.755Z,7.37
2018-07-23T04:16:23.196Z,7.23
2018-07-23T04:18:51.645Z,6.77
2018-07-23T04:21:20.094Z,6.97
2018-07-23T04:23:48.530Z,6.43
2018-07-23T04:26:17.123Z,6.80
2018-07-23T04:28:45.562Z,7.27
2018-07-23T04:31:14.023Z,7.33
2018-07-23T04:33:42.473Z,7.33
2018-07-23T04:36:10.922Z,7.53
2018-07-23T04:38:39.358Z,6.97
2018-07-23T04:41:08.144Z,6.50
2018-07-23T04:43:36.609Z,6.30
2018-07-23T04:46:05.164Z,7.00
2018-07-23T04:48:33.865Z,6.60
2018-07-23T04:51:02.347Z,7.90
2018-07-23T04:53:31.112Z,7.60
2018-07-23T04:56:00.012Z,7.00
2018-07-23T04:58:28.441Z,7.80
2018-07-23T05:00:57.020Z,7.53
2018-07-23T05:03:25.536Z,8.03
2018-07-23T05:05:53.986Z,7.30
2018-07-23T05:08:22.465Z,7.70
2018-07-23T05:10:50.965Z,7.27
2018-07-23T05:13:19.421Z,8.73
2018-07-23T05:15:47.847Z,8.70
2018-07-23T05:18:16.385Z,8.70
2018-07-23T05:20:44.820Z,9.00
2018-07-23T05:23:13.276Z,8.90
2018-07-23T05:25:41.695Z,8.10
2018-07-23T05:28:10.169Z,8.00
2018-07-23T05:30:38.641Z,8.17
2018-07-23T05:33:07.165Z,9.20
2018-07-23T05:35:35.830Z,7.60
2018-07-23T05:38:04.255Z,8.90
2018-07-23T05:40:32.722Z,9.50
2018-07-23T05:43:01.145Z,10.43
2018-07-23T05:45:29.595Z,9.40
2018-07-23T05:47:58.089Z,9.40
2018-07-23T05:50:26.561Z,8.47
2018-07-23T05:52:54.989Z,8.47
2018-07-23T05:55:23.452Z,9.00
2018-07-23T05:57:51.927Z,8.63
2018-07-23T06:00:20.367Z,7.63
2018-07-23T06:02:48.910Z,8.20
2018-07-23T06:05:18.073Z,9.37
2018-07-23T06:07:46.605Z,9.10
2018-07-23T06:10:15.107Z,8.43
2018-07-23T06:12:43.564Z,8.50
2018-07-23T06:15:12.416Z,8.63
2018-07-23T06:17:40.906Z,8.73
2018-07-23T06:20:09.948Z,9.20
2018-07-23T06:22:38.922Z,8.37
2018-07-23T06:25:08.316Z,9.10
2018-07-23T06:27:36.766Z,8.87
2018-07-23T06:30:07.643Z,9.30
2018-07-23T06:32:36.286Z,9.90
2018-07-23T06:35:05.297Z,9.73
2018-07-23T06:37:34.061Z,9.30
2018-07-23T06:40:03.121Z,9.20
2018-07-23T06:42:31.635Z,9.40
2018-07-23T06:45:00.071Z,9.30
2018-07-23T06:47:28.609Z,8.00
2018-07-23T06:49:57.149Z,8.73
2018-07-23T06:52:25.870Z,8.50
2018-07-23T06:54:54.331Z,8.63
2018-07-23T06:57:22.905Z,8.50
2018-07-23T06:59:51.549Z,7.67
2018-07-23T07:02:20.019Z,7.00
2018-07-23T07:04:48.438Z,7.80
2018-07-23T07:07:16.898Z,7.30
2018-07-23T07:09:45.373Z,7.77
2018-07-23T07:12:13.875Z,7.67
2018-07-23T07:14:42.687Z,7.67
2018-07-23T07:17:11.149Z,7.37
2018-07-23T07:19:39.578Z,6.87
2018-07-23T07:22:08.408Z,7.67
2018-07-23T07:24:36.858Z,7.37
2018-07-23T07:27:05.773Z,7.40
2018-07-23T07:29:34.283Z,6.83
2018-07-23T07:32:02.817Z,6.70
2018-07-23T07:34:31.379Z,7.67
2018-07-23T07:36:59.845Z,6.70
2018-07-23T07:39:28.503Z,7.57
2018-07-23T07:41:57.346Z,7.10
2018-07-23T07:44:26.153Z,7.83
2018-07-23T07:46:54.626Z,6.00
2018-07-23T07:49:23.155Z,7.40
2018-07-23T07:51:51.776Z,6.40
2018-07-23T07:54:20.291Z,6.90
2018-07-23T07:56:48.794Z,6.53
2018-07-23T07:59:17.297Z,7.13
2018-07-23T08:01:46.025Z,6.80
2018-07-23T08:04:14.646Z,6.80
2018-07-23T08:06:43.200Z,6.83
2018-07-23T08:09:11.680Z,6.90
2018-07-23T08:11:40.476Z,6.17
2018-07-23T08:14:08.925Z,6.43
2018-07-23T08:16:37.389Z,6.87
2018-07-23T08:19:06.260Z,6.90
2018-07-23T08:21:35.076Z,6.47
2018-07-23T08:24:03.594Z,5.93
2018-07-23T08:26:32.040Z,6.83
2018-07-23T08:29:00.726Z,6.77
2018-07-23T08:31:29.221Z,6.20
2018-07-23T08:33:57.894Z,7.20
2018-07-23T08:36:26.401Z,5.67
2018-07-23T08:38:54.884Z,7.17
2018-07-23T08:41:23.342Z,7.00
2018-07-23T08:43:51.958Z,6.30
2018-07-23T08:46:20.489Z,6.70
2018-07-23T08:48:49.029Z,6.50
2018-07-23T08:51:17.592Z,5.97
2018-07-23T08:53:46.192Z,6.50
2018-07-23T08:56:14.687Z,6.63
2018-07-23T08:58:43.294Z,7.50
2018-07-23T09:01:11.770Z,8.00
2018-07-23T09:03:40.276Z,6.50
2018-07-23T09:06:08.746Z,6.20
2018-07-23T09:08:37.341Z,8.10
2018-07-23T09:11:05.933Z,6.30
2018-07-23T09:13:34.393Z,6.77
2018-07-23T09:16:02.892Z,7.00
2018-07-23T09:18:31.365Z,5.97
2018-07-23T09:21:00.185Z,6.67
2018-07-23T09:23:28.643Z,7.30
2018-07-23T09:25:57.288Z,6.17
2018-07-23T09:28:25.735Z,7.63
2018-07-23T09:30:57.760Z,6.20
2018-07-23T09:33:26.399Z,6.80
2018-07-23T09:35:55.150Z,6.43
2018-07-23T09:38:24.034Z,5.90
2018-07-23T09:40:52.924Z,6.50
2018-07-23T09:43:22.138Z,5.73
2018-07-23T09:45:50.618Z,6.40
2018-07-23T09:48:19.085Z,4.70
2018-07-23T09:50:47.878Z,4.83
2018-07-23T09:53:16.357Z,5.40
2018-07-23T09:55:44.803Z,4.73
2018-07-23T09:58:13.274Z,6.10
2018-07-23T10:00:47.042Z,6.30
2018-07-23T10:03:15.631Z,6.50
2018-07-23T10:05:44.220Z,7.50
2018-07-23T10:08:12.694Z,6.43
2018-07-23T10:10:41.231Z,6.00
2018-07-23T10:13:09.791Z,6.50
2018-07-23T10:15:38.258Z,5.90
2018-07-23T10:18:06.733Z,6.07
2018-07-23T10:20:35.538Z,5.23
2018-07-23T10:23:04.052Z,4.47
2018-07-23T10:25:32.474Z,5.30
2018-07-23T10:28:00.925Z,5.30
2018-07-23T10:30:29.835Z,5.03
2018-07-23T10:32:58.299Z,5.40
2018-07-23T10:35:26.749Z,4.53
2018-07-23T10:37:55.249Z,5.10
2018-07-23T10:40:23.702Z,5.43
2018-07-23T10:42:52.177Z,4.80
2018-07-23T10:45:20.662Z,7.00
2018-07-23T10:47:49.223Z,5.10
2018-07-23T10:50:17.748Z,5.73
2018-07-23T10:52:46.267Z,6.17
2018-07-23T10:55:14.714Z,5.17
2018-07-23T10:57:43.517Z,4.87
2018-07-23T11:00:12.013Z,4.97
2018-07-23T11:02:40.451Z,5.43
2018-07-23T11:05:09.452Z,5.57
2018-07-23T11:07:37.936Z,5.37
2018-07-23T11:10:07.266Z,4.60
2018-07-23T11:12:36.046Z,5.50
2018-07-23T11:15:06.143Z,5.50
2018-07-23T11:17:34.976Z,5.57
2018-07-23T11:20:03.487Z,4.77
2018-07-23T11:22:32.110Z,4.90
2018-07-23T11:25:37.950Z,4.87
2018-07-23T11:27:29.401Z,6.47
2018-07-23T11:29:57.902Z,6.40
2018-07-23T11:32:26.321Z,6.70
2018-07-23T11:34:54.785Z,6.10
2018-07-23T11:37:23.229Z,5.90
2018-07-23T11:39:51.680Z,5.40
2018-07-23T11:42:20.179Z,7.10
2018-07-23T11:44:48.818Z,5.83
2018-07-23T11:47:17.489Z,7.17
2018-07-23T11:49:46.033Z,5.37
2018-07-23T11:52:14.785Z,5.30
2018-07-23T11:54:43.427Z,6.70
2018-07-23T11:57:11.957Z,6.07
2018-07-23T11:59:40.421Z,5.83
2018-07-23T12:02:09.009Z,6.10
2018-07-23T12:04:37.724Z,5.30
2018-07-23T12:07:06.972Z,6.50
2018-07-23T12:09:35.416Z,5.70
2018-07-23T12:12:03.919Z,5.67
2018-07-23T12:14:32.450Z,6.90
2018-07-23T12:17:00.996Z,5.87
2018-07-23T12:19:29.489Z,5.30
2018-07-23T12:21:57.942Z,5.77
2018-07-23T12:24:26.399Z,5.00
2018-07-23T12:26:54.869Z,4.83
2018-07-23T12:29:23.307Z,5.83
2018-07-23T12:31:51.772Z,5.67
2018-07-23T12:34:20.203Z,5.23
2018-07-23T12:36:48.684Z,6.07
2018-07-23T12:39:17.292Z,5.87
2018-07-23T12:41:45.913Z,5.23
2018-07-23T12:44:14.362Z,4.93
2018-07-23T12:46:42.823Z,6.10
2018-07-23T12:49:11.561Z,4.80
2018-07-23T12:51:40.040Z,6.10
2018-07-23T12:54:09.611Z,4.40
2018-07-23T12:56:38.381Z,3.67
2018-07-23T12:59:06.863Z,3.73
2018-07-23T13:01:35.341Z,3.30
2018-07-23T13:04:03.837Z,3.60
2018-07-23T13:06:32.317Z,3.27
2018-07-23T13:09:00.856Z,3.80
2018-07-23T13:11:29.314Z,3.97
2018-07-23T13:13:58.114Z,3.50
2018-07-23T13:16:26.558Z,4.30
2018-07-23T13:18:55.023Z,4.27
2018-07-23T13:21:23.495Z,4.20
2018-07-23T13:23:51.983Z,3.73
2018-07-23T13:26:20.418Z,4.37
2018-07-23T13:28:48.846Z,4.47
2018-07-23T13:31:17.302Z,4.20
2018-07-23T13:33:45.782Z,4.03
2018-07-23T13:36:14.607Z,4.30
2018-07-23T13:38:43.042Z,3.77
2018-07-23T13:41:11.495Z,4.17
2018-07-23T13:43:40.017Z,3.23
2018-07-23T13:46:08.469Z,3.87
2018-07-23T13:48:36.976Z,3.90
2018-07-23T13:51:05.395Z,4.13
2018-07-23T13:53:33.953Z,4.10
2018-07-23T13:56:02.738Z,4.60
2018-07-23T13:58:31.216Z,4.37
2018-07-23T14:01:00.245Z,4.00
2018-07-23T14:03:28.710Z,4.13
2018-07-23T14:05:57.138Z,4.03
2018-07-23T14:08:25.910Z,3.87
2018-07-23T14:10:54.469Z,4.33
2018-07-23T14:13:22.963Z,3.70
2018-07-23T14:15:51.414Z,3.83
2018-07-23T14:18:20.205Z,4.23
2018-07-23T14:20:48.715Z,3.63
2018-07-23T14:23:17.182Z,4.10
2018-07-23T14:25:45.845Z,4.13
2018-07-23T14:28:14.500Z,3.90
2018-07-23T14:30:43.080Z,3.27
2018-07-23T14:33:11.643Z,3.23
2018-07-23T14:35:40.090Z,3.90
2018-07-23T14:38:08.560Z,4.00
2018-07-23T14:40:37.009Z,4.70
2018-07-23T14:43:05.518Z,4.30
2018-07-23T14:45:33.963Z,4.40
2018-07-23T14:48:02.473Z,4.10
2018-07-23T14:50:30.904Z,3.60
2018-07-23T14:52:59.372Z,3.97
2018-07-23T14:55:28.242Z,4.77
2018-07-23T14:57:57.142Z,4.43
2018-07-23T15:00:25.629Z,4.43
2018-07-23T15:02:54.198Z,3.90
2018-07-23T15:05:22.644Z,5.30
2018-07-23T15:07:51.332Z,4.70
2018-07-23T15:10:19.829Z,4.77
2018-07-23T15:12:48.266Z,4.00
2018-07-23T15:15:16.741Z,4.00
2018-07-23T15:17:45.347Z,4.57
2018-07-23T15:20:13.806Z,4.00
2018-07-23T15:22:42.292Z,5.27
2018-07-23T15:25:11.179Z,4.60
2018-07-23T15:27:39.712Z,4.23
2018-07-23T15:30:08.206Z,4.73
2018-07-23T15:32:36.686Z,5.33
2018-07-23T15:35:05.211Z,4.67
2018-07-23T15:37:33.661Z,4.13
2018-07-23T15:40:02.087Z,4.87
2018-07-23T15:42:30.590Z,4.97
2018-07-23T15:44:59.466Z,4.23
2018-07-23T15:47:27.880Z,4.90
2018-07-23T15:49:56.350Z,4.50
2018-07-23T15:52:24.799Z,4.30
2018-07-23T15:54:53.275Z,4.30
2018-07-23T15:57:21.815Z,3.90
2018-07-23T15:59:50.319Z,5.07
2018-07-23T16:02:18.774Z,3.87
2018-07-23T16:04:47.195Z,4.80
2018-07-23T16:07:15.785Z,4.67
2018-07-23T16:09:44.374Z,4.50
2018-07-23T16:12:13.015Z,4.63
2018-07-23T16:14:41.482Z,4.60
2018-07-23T16:17:09.972Z,5.43
2018-07-23T16:19:38.424Z,5.60
2018-07-23T16:22:07.205Z,5.50
2018-07-23T16:24:35.699Z,5.40
2018-07-23T16:27:04.224Z,4.70
2018-07-23T16:29:32.714Z,4.97
2018-07-23T16:32:01.179Z,4.47
2018-07-23T16:34:29.742Z,4.87
2018-07-23T16:36:58.198Z,5.10
2018-07-23T16:39:26.768Z,5.13
2018-07-23T16:41:55.248Z,4.40
2018-07-23T16:44:24.118Z,5.03
2018-07-23T16:46:52.603Z,5.10
2018-07-23T16:49:21.278Z,4.40
2018-07-23T16:51:49.757Z,4.40
2018-07-23T16:54:18.174Z,4.70
2018-07-23T16:56:46.652Z,4.50
2018-07-23T16:59:15.156Z,4.47
2018-07-23T17:01:43.643Z,4.70
2018-07-23T17:04:12.092Z,5.23
2018-07-23T17:06:40.797Z,5.57
2018-07-23T17:09:10.822Z,4.17
2018-07-23T17:11:39.287Z,4.80
2018-07-23T17:14:08.522Z,5.67
2018-07-23T17:16:36.975Z,5.20
2018-07-23T17:19:05.798Z,4.23
2018-07-23T17:21:34.458Z,4.53
2018-07-23T17:24:02.921Z,5.03
2018-07-23T17:26:31.414Z,4.37
2018-07-23T17:28:59.876Z,4.20
2018-07-23T17:31:28.661Z,4.07
2018-07-23T17:33:57.256Z,8.90
2018-07-23T17:36:26.201Z,5.10
2018-07-23T17:38:54.717Z,5.00
2018-07-23T17:44:26.826Z,5.23
2018-07-23T17:47:01.204Z,5.77
2018-07-23T17:49:33.597Z,4.80
2018-07-23T17:52:02.373Z,6.57
2018-07-23T17:54:30.880Z,4.80
2018-07-23T17:56:59.641Z,4.40
2018-07-23T17:59:28.046Z,5.13
2018-07-23T18:01:56.446Z,4.70
2018-07-23T18:04:24.849Z,5.07
2018-07-23T18:06:53.339Z,4.97
2018-07-23T18:09:21.748Z,4.70
2018-07-23T18:11:50.216Z,6.30
2018-07-23T18:14:18.632Z,4.23
2018-07-23T18:16:47.068Z,8.60
2018-07-23T18:19:15.507Z,5.77
2018-07-23T18:21:43.935Z,6.07
2018-07-23T18:24:12.321Z,7.87
2018-07-23T18:26:40.725Z,8.40
2018-07-23T18:29:09.285Z,6.47
2018-07-23T18:31:37.771Z,4.77
2018-07-23T18:34:06.724Z,4.30
2018-07-23T18:36:35.280Z,5.13
2018-07-23T18:39:05.957Z,4.80
2018-07-23T18:41:34.464Z,5.10
2018-07-23T18:44:02.921Z,5.57
2018-07-23T18:46:31.494Z,4.43
2018-07-23T18:49:23.016Z,4.73
2018-07-23T18:51:52.708Z,5.50
2018-07-23T18:54:22.149Z,5.33
2018-07-23T18:56:52.596Z,6.90
2018-07-23T18:59:21.444Z,6.10
2018-07-23T19:01:51.092Z,5.40
2018-07-23T19:04:19.472Z,4.80
2018-07-23T19:06:48.161Z,7.00
2018-07-23T19:09:17.789Z,6.10
2018-07-23T19:11:47.275Z,5.17
2018-07-23T19:14:16.101Z,4.20
2018-07-23T19:16:44.992Z,4.60
2018-07-23T19:19:13.532Z,5.30
2018-07-23T19:21:42.933Z,5.50
2018-07-23T19:24:11.812Z,5.50
2018-07-23T19:26:41.986Z,5.43
2018-07-23T19:29:10.426Z,4.97
2018-07-23T19:31:38.925Z,5.63
2018-07-23T19:34:07.822Z,5.20
2018-07-23T19:36:36.278Z,5.27
2018-07-23T19:39:08.590Z,5.07
2018-07-23T19:41:38.059Z,5.23
2018-07-23T19:44:07.121Z,5.03
2018-07-23T19:46:35.734Z,5.30
2018-07-23T19:49:04.395Z,5.70
2018-07-23T19:51:32.842Z,5.77
2018-07-23T19:54:01.273Z,5.33
2018-07-23T19:56:29.724Z,6.10
2018-07-23T19:58:58.189Z,6.80
2018-07-23T20:01:26.937Z,6.00
2018-07-23T20:03:55.352Z,6.30
2018-07-23T20:06:26.956Z,6.53
2018-07-23T20:08:56.426Z,6.20
2018-07-23T20:11:25.777Z,6.73
2018-07-23T20:13:54.170Z,5.97
2018-07-23T20:16:22.686Z,6.00
2018-07-23T20:18:51.464Z,6.60
2018-07-23T20:21:19.956Z,6.30
2018-07-23T20:23:48.770Z,6.03
2018-07-23T20:26:17.411Z,6.10
2018-07-23T20:28:46.017Z,6.57
2018-07-23T20:31:14.414Z,6.37
2018-07-23T20:33:42.873Z,7.23
2018-07-23T20:36:11.377Z,6.73
2018-07-23T20:38:39.802Z,6.67
2018-07-23T20:41:08.244Z,6.47
2018-07-23T20:43:36.729Z,6.13
2018-07-23T20:46:05.208Z,6.03
2018-07-23T20:48:35.778Z,7.03
2018-07-23T20:51:04.597Z,6.83
2018-07-23T20:53:37.812Z,6.93
2018-07-23T20:56:06.250Z,6.27
2018-07-23T20:58:34.677Z,6.20
2018-07-23T21:01:03.122Z,6.37
2018-07-23T21:03:31.877Z,6.57
2018-07-23T21:06:01.323Z,7.00
2018-07-23T21:08:29.756Z,5.43
2018-07-23T21:10:58.182Z,6.73
2018-07-23T21:13:26.660Z,6.90
2018-07-23T21:15:55.205Z,6.67
2018-07-23T21:18:23.621Z,6.80
2018-07-23T21:20:52.476Z,8.07
2018-07-23T21:23:21.254Z,7.50
2018-07-23T21:25:49.695Z,7.13
2018-07-23T21:28:18.160Z,5.90
2018-07-23T21:30:46.930Z,6.40
2018-07-23T21:33:15.398Z,7.87
2018-07-23T21:35:43.831Z,7.80
2018-07-23T21:38:12.252Z,7.50
2018-07-23T21:40:40.704Z,7.50
2018-07-23T21:43:09.129Z,7.20
2018-07-23T21:45:37.535Z,7.87
2018-07-23T21:48:06.312Z,7.87
2018-07-23T21:50:34.746Z,12.30
2018-07-23T21:53:03.181Z,10.53
2018-07-23T21:55:31.573Z,7.67
2018-07-23T21:58:00.036Z,6.97
2018-07-23T22:00:28.841Z,6.13
2018-07-23T22:02:57.242Z,6.13
2018-07-23T22:05:25.661Z,6.40
2018-07-23T22:07:54.060Z,6.40
2018-07-23T22:10:22.853Z,6.67
2018-07-23T22:12:51.307Z,5.57
2018-07-23T22:15:19.925Z,6.27
2018-07-23T22:17:48.357Z,6.50
2018-07-23T22:20:16.809Z,6.47
2018-07-23T22:22:45.247Z,7.53
2018-07-23T22:25:13.691Z,7.07
2018-07-23T22:27:42.101Z,6.60
2018-07-23T22:30:10.655Z,6.73
2018-07-23T22:32:39.217Z,6.57
2018-07-23T22:35:07.657Z,7.13
2018-07-23T22:37:36.184Z,6.47
2018-07-23T22:40:04.660Z,7.43
2018-07-23T22:42:37.977Z,7.90
2018-07-23T22:45:06.565Z,7.17
2018-07-23T22:47:34.941Z,7.30
2018-07-23T22:50:03.782Z,7.17
2018-07-23T22:52:32.304Z,7.53
2018-07-23T22:55:01.073Z,7.10
2018-07-23T22:57:29.530Z,6.30
2018-07-23T22:59:58.108Z,6.27
2018-07-23T23:02:26.525Z,7.37
2018-07-23T23:04:54.934Z,7.47
2018-07-23T23:07:23.687Z,7.00
2018-07-23T23:09:52.089Z,7.70
2018-07-23T23:12:20.506Z,7.77
2018-07-23T23:14:48.949Z,7.47
2018-07-23T23:17:17.378Z,6.90
2018-07-23T23:19:45.784Z,8.13
2018-07-23T23:22:14.577Z,7.83
2018-07-23T23:24:43.301Z,7.30
2018-07-23T23:27:11.681Z,7.13
2018-07-23T23:29:40.087Z,8.30
2018-07-23T23:32:08.532Z,7.37
2018-07-23T23:34:36.912Z,7.27
2018-07-23T23:37:05.309Z,7.30
2018-07-23T23:39:33.726Z,7.13
2018-07-23T23:42:02.146Z,7.13
2018-07-23T23:44:30.553Z,7.60
2018-07-23T23:46:58.968Z,7.40
2018-07-23T23:49:27.340Z,7.07
2018-07-23T23:51:55.737Z,7.60
2018-07-23T23:54:24.121Z,7.70
2018-07-23T23:56:52.540Z,7.30
2018-07-23T23:59:20.972Z,6.40
